createdAt,value
2023-03-10T10:54:43.948Z,6.50
2023-03-10T10:57:21.872Z,5.00
2023-03-10T10:59:50.014Z,4.60
2023-03-10T11:02:32.498Z,4.20
2023-03-10T11:05:15.725Z,4.00
2023-03-10T11:07:44.459Z,5.20
2023-03-10T11:10:20.381Z,4.90
2023-03-10T11:13:48.527Z,4.60
2023-03-10T11:16:26.268Z,4.90
2023-03-10T11:19:39.208Z,4.70
2023-03-10T11:22:17.588Z,5.40
2023-03-10T11:24:51.923Z,5.50
2023-03-10T11:27:43.000Z,5.80
2023-03-10T11:30:20.482Z,5.50
2023-03-10T11:33:03.401Z,6.30
2023-03-10T11:35:45.811Z,5.30
2023-03-10T11:38:28.517Z,6.10
2023-03-10T11:41:06.208Z,6.20
2023-03-10T11:46:29.873Z,6.10
2023-03-10T11:49:12.358Z,6.80
2023-03-10T11:51:51.450Z,6.90
2023-03-10T11:54:31.234Z,6.70
2023-03-10T11:57:03.489Z,5.50
2023-03-10T11:59:42.192Z,4.80
2023-03-10T12:02:24.515Z,5.00
2023-03-10T12:05:22.501Z,5.20
2023-03-10T12:07:58.276Z,6.30
2023-03-10T12:10:29.051Z,5.10
2023-03-10T12:12:58.550Z,5.10
2023-03-10T12:15:37.034Z,5.10
2023-03-10T12:18:09.019Z,5.90
2023-03-10T12:20:37.656Z,5.50
2023-03-10T12:23:09.618Z,5.30
2023-03-10T12:25:40.503Z,5.40
2023-03-10T12:28:16.975Z,5.40
2023-03-10T12:30:56.564Z,5.50
2023-03-10T12:33:38.598Z,4.60
2023-03-10T12:36:15.343Z,5.10
2023-03-10T12:38:54.099Z,5.00
2023-03-10T12:41:28.189Z,4.00
2023-03-10T12:44:04.060Z,4.10
2023-03-10T12:46:50.520Z,4.20
2023-03-10T12:49:37.777Z,4.90
2023-03-10T12:52:21.352Z,5.10
2023-03-10T12:55:03.567Z,4.70
2023-03-10T12:57:47.033Z,4.20
2023-03-10T13:00:35.432Z,4.80
2023-03-10T13:03:11.476Z,4.50
2023-03-10T13:05:57.731Z,5.20
2023-03-10T13:08:38.304Z,4.30
2023-03-10T13:11:18.413Z,4.50
2023-03-10T13:14:04.776Z,4.60
2023-03-10T13:16:33.623Z,4.40
2023-03-10T13:19:04.001Z,4.40
2023-03-10T13:21:36.776Z,4.40
2023-03-10T13:24:33.371Z,4.20
2023-03-10T13:27:30.638Z,4.20
2023-03-10T13:30:02.675Z,4.00
2023-03-10T13:32:34.537Z,3.40
2023-03-10T13:35:23.653Z,3.70
2023-03-10T13:38:21.942Z,3.90
2023-03-10T13:40:58.615Z,3.40
2023-03-10T13:43:54.643Z,4.20
2023-03-10T13:46:32.090Z,3.90
2023-03-10T13:49:06.681Z,4.20
2023-03-10T13:51:37.541Z,3.90
2023-03-10T13:54:19.550Z,3.50
2023-03-10T13:56:52.215Z,3.70
2023-03-10T13:59:24.518Z,4.30
2023-03-10T14:01:56.641Z,4.50
2023-03-10T14:04:49.101Z,4.40
2023-03-10T14:07:28.774Z,4.70
2023-03-10T14:10:05.917Z,5.10
2023-03-10T14:12:45.585Z,4.00
2023-03-10T14:15:19.004Z,4.20
2023-03-10T14:18:13.435Z,6.00
2023-03-10T14:20:48.032Z,5.10
2023-03-10T14:23:19.785Z,4.70
2023-03-10T14:25:49.690Z,3.90
2023-03-10T14:28:19.676Z,5.10
2023-03-10T14:30:48.219Z,4.70
2023-03-10T14:33:16.794Z,5.60
2023-03-10T14:35:46.220Z,8.00
2023-03-10T14:38:14.423Z,7.00
2023-03-10T14:40:46.048Z,8.40
2023-03-10T14:43:18.865Z,8.10
2023-03-10T14:45:49.957Z,6.50
2023-03-10T14:48:22.438Z,6.50
2023-03-10T14:50:51.966Z,5.70
2023-03-10T14:53:23.952Z,5.70
2023-03-10T14:55:55.270Z,7.50
2023-03-10T14:58:28.379Z,6.40
2023-03-10T15:00:56.615Z,6.00
2023-03-10T15:03:24.507Z,5.70
2023-03-10T15:05:52.592Z,5.10
2023-03-10T15:08:30.399Z,5.10
2023-03-10T15:10:59.900Z,4.90
2023-03-10T15:13:28.944Z,5.80
2023-03-10T15:16:01.596Z,4.80
2023-03-10T15:18:30.801Z,5.40
2023-03-10T15:21:00.452Z,5.30
2023-03-10T15:23:30.011Z,5.00
2023-03-10T15:25:58.996Z,5.40
2023-03-10T15:28:26.998Z,6.00
2023-03-10T15:30:55.152Z,7.00
2023-03-10T15:33:24.074Z,6.90
2023-03-10T15:35:56.938Z,6.80
2023-03-10T15:38:26.162Z,7.70
2023-03-10T15:40:54.608Z,7.80
2023-03-10T15:43:23.754Z,8.50
2023-03-10T15:45:52.085Z,8.90
2023-03-10T15:48:20.691Z,8.40
2023-03-10T15:50:49.169Z,8.30
2023-03-10T15:53:20.779Z,7.80
2023-03-10T15:55:52.244Z,8.80
2023-03-10T15:58:20.352Z,10.60
2023-03-10T16:00:48.622Z,10.60
2023-03-10T16:03:18.532Z,11.00
2023-03-10T16:05:49.568Z,10.90
2023-03-10T16:08:19.052Z,10.40
2023-03-10T16:10:54.289Z,9.50
2023-03-10T16:13:23.852Z,10.60
2023-03-10T16:15:52.870Z,10.90
2023-03-10T16:18:21.060Z,10.30
2023-03-10T16:20:59.261Z,11.40
2023-03-10T16:23:30.794Z,10.90
2023-03-10T16:26:12.037Z,11.30
2023-03-10T16:28:47.585Z,9.50
2023-03-10T16:31:17.826Z,8.80
2023-03-10T16:33:49.589Z,7.90
2023-03-10T16:36:20.835Z,7.50
2023-03-10T16:38:49.885Z,8.20
2023-03-10T16:41:18.007Z,8.20
2023-03-10T16:43:46.617Z,8.80
2023-03-10T16:46:25.079Z,10.70
2023-03-10T16:48:56.235Z,12.00
2023-03-10T16:51:42.158Z,9.10
2023-03-10T16:54:16.336Z,9.90
2023-03-10T16:56:47.723Z,8.70
2023-03-10T16:59:22.306Z,10.30
2023-03-10T17:01:51.570Z,10.10
2023-03-10T17:04:20.356Z,10.70
2023-03-10T17:06:52.379Z,10.60
2023-03-10T17:09:20.746Z,10.40
2023-03-10T17:11:54.835Z,10.20
2023-03-10T17:14:23.966Z,9.70
2023-03-10T17:16:54.481Z,9.20
2023-03-10T17:19:30.070Z,10.20
2023-03-10T17:21:58.932Z,10.50
2023-03-10T17:24:28.006Z,10.80
2023-03-10T17:26:56.896Z,10.30
2023-03-10T17:29:25.037Z,10.90
2023-03-10T17:31:53.663Z,10.50
2023-03-10T17:34:22.164Z,10.30
2023-03-10T17:36:51.315Z,10.90
2023-03-10T17:39:22.658Z,10.70
2023-03-10T17:41:51.070Z,10.60
2023-03-10T17:44:19.875Z,10.30
2023-03-10T17:46:52.704Z,10.10
2023-03-10T17:49:20.719Z,10.30
2023-03-10T17:51:49.682Z,10.70
2023-03-10T17:54:21.244Z,10.10
2023-03-10T17:56:49.980Z,10.10
2023-03-10T17:59:18.270Z,10.40
2023-03-10T18:01:47.025Z,9.80
2023-03-10T18:04:15.365Z,10.00
2023-03-10T18:06:43.606Z,9.40
2023-03-10T18:09:31.485Z,9.80
2023-03-10T18:12:00.179Z,10.60
2023-03-10T18:14:29.527Z,10.40
2023-03-10T18:16:57.839Z,10.90
2023-03-10T18:19:31.857Z,10.60
2023-03-10T18:22:08.086Z,9.30
2023-03-10T18:24:42.848Z,10.40
2023-03-10T18:27:12.197Z,10.80
2023-03-10T18:29:40.422Z,11.10
2023-03-10T18:32:08.738Z,11.60
2023-03-10T18:34:40.561Z,10.90
2023-03-10T18:37:08.766Z,11.00
2023-03-10T18:39:40.937Z,10.80
2023-03-10T18:42:09.188Z,11.50
2023-03-10T18:44:39.167Z,11.70
2023-03-10T18:47:07.685Z,11.30
2023-03-10T18:49:36.054Z,11.20
2023-03-10T18:52:04.695Z,12.10
2023-03-10T18:54:32.984Z,12.70
2023-03-10T18:57:01.849Z,12.40
2023-03-10T18:59:30.120Z,12.00
2023-03-10T19:01:59.290Z,13.20
2023-03-10T19:04:27.561Z,14.00
2023-03-10T19:06:55.697Z,12.80
2023-03-10T19:09:29.322Z,12.70
2023-03-10T19:11:57.375Z,11.50
2023-03-10T19:14:26.325Z,12.10
2023-03-10T19:16:54.801Z,12.50
2023-03-10T19:19:28.604Z,12.50
2023-03-10T19:21:57.067Z,12.40
2023-03-10T19:24:25.476Z,12.10
2023-03-10T19:26:53.840Z,12.00
2023-03-10T19:29:21.965Z,12.00
2023-03-10T19:31:56.479Z,10.30
2023-03-10T19:34:26.112Z,11.40
2023-03-10T19:36:54.650Z,11.90
2023-03-10T19:39:23.838Z,10.70
2023-03-10T19:41:52.297Z,11.10
2023-03-10T19:44:21.897Z,11.30
2023-03-10T19:46:50.007Z,11.20
2023-03-10T19:49:19.245Z,11.60
2023-03-10T19:51:47.475Z,10.20
2023-03-10T19:54:15.397Z,11.40
2023-03-10T19:56:44.703Z,11.20
2023-03-10T19:59:12.719Z,11.00
2023-03-10T20:01:49.011Z,11.30
2023-03-10T20:04:17.956Z,13.40
2023-03-10T20:06:47.085Z,12.50
2023-03-10T20:09:19.006Z,12.00
2023-03-10T20:11:47.021Z,12.20
2023-03-10T20:14:15.024Z,12.10
2023-03-10T20:16:43.411Z,12.60
2023-03-10T20:19:12.093Z,13.20
2023-03-10T20:21:41.653Z,13.00
2023-03-10T20:24:09.782Z,12.10
2023-03-10T20:26:39.481Z,12.40
2023-03-10T20:29:12.201Z,13.40
2023-03-10T20:31:40.841Z,13.10
2023-03-10T20:34:17.390Z,13.70
2023-03-10T20:36:45.697Z,13.20
2023-03-10T20:39:17.236Z,12.60
2023-03-10T20:41:46.400Z,12.40
2023-03-10T20:44:15.020Z,13.70
2023-03-10T20:46:43.887Z,13.00
2023-03-10T20:49:13.188Z,13.90
2023-03-10T20:51:41.749Z,13.40
2023-03-10T20:54:10.542Z,14.20
2023-03-10T20:56:39.477Z,13.30
2023-03-10T20:59:07.908Z,12.70
2023-03-10T21:01:39.886Z,13.20
2023-03-10T21:04:08.765Z,13.10
2023-03-10T21:06:37.446Z,14.30
2023-03-10T21:09:07.464Z,13.70
2023-03-10T21:11:35.842Z,13.80
2023-03-10T21:14:04.497Z,12.40
2023-03-10T21:16:36.762Z,13.60
2023-03-10T21:19:13.670Z,13.30
2023-03-10T21:21:42.814Z,13.80
2023-03-10T21:24:11.223Z,12.80
2023-03-10T21:26:39.242Z,12.80
2023-03-10T21:29:08.475Z,12.40
2023-03-10T21:31:41.255Z,13.30
2023-03-10T21:34:09.441Z,13.30
2023-03-10T21:36:37.708Z,14.00
2023-03-10T21:39:08.988Z,11.90
2023-03-10T21:41:37.532Z,13.60
2023-03-10T21:44:07.648Z,11.80
2023-03-10T21:46:37.099Z,13.30
2023-03-10T21:49:05.661Z,13.90
2023-03-10T21:51:36.066Z,12.70
2023-03-10T21:54:04.955Z,12.90
2023-03-10T21:56:34.188Z,14.00
2023-03-10T21:59:03.569Z,12.90
2023-03-10T22:01:36.758Z,12.90
2023-03-10T22:04:05.190Z,13.50
2023-03-10T22:06:33.836Z,13.60
2023-03-10T22:09:01.821Z,14.00
2023-03-10T22:11:30.463Z,14.40
2023-03-10T22:13:59.762Z,13.30
2023-03-10T22:16:27.924Z,13.00
2023-03-10T22:18:57.024Z,13.10
2023-03-10T22:21:25.618Z,13.30
2023-03-10T22:23:53.972Z,13.60
2023-03-10T22:26:22.245Z,12.80
2023-03-10T22:28:50.480Z,12.10
2023-03-10T22:31:19.376Z,15.10
2023-03-10T22:33:47.977Z,14.80
2023-03-10T22:36:15.962Z,13.60
2023-03-10T22:38:45.468Z,13.10
2023-03-10T22:41:13.855Z,13.40
2023-03-10T22:43:44.231Z,13.80
2023-03-10T22:46:16.472Z,13.60
2023-03-10T22:48:44.882Z,14.50
2023-03-10T22:51:16.037Z,13.80
2023-03-10T22:53:47.036Z,13.30
2023-03-10T22:56:15.067Z,12.80
2023-03-10T22:58:43.371Z,13.40
2023-03-10T23:01:11.438Z,12.60
2023-03-10T23:03:41.485Z,12.50
2023-03-10T23:06:14.040Z,12.50
2023-03-10T23:08:46.787Z,13.00
2023-03-10T23:11:15.773Z,14.90
2023-03-10T23:13:45.157Z,13.80
2023-03-10T23:16:18.286Z,14.30
2023-03-10T23:18:46.877Z,13.50
2023-03-10T23:21:15.376Z,12.70
2023-03-10T23:23:44.059Z,13.80
2023-03-10T23:26:12.489Z,14.40
2023-03-10T23:28:42.509Z,15.50
2023-03-10T23:31:15.447Z,13.70
2023-03-10T23:33:44.851Z,12.80
2023-03-10T23:36:13.688Z,15.80
2023-03-10T23:38:42.996Z,13.30
2023-03-10T23:41:11.538Z,14.30
2023-03-10T23:43:39.834Z,14.30
2023-03-10T23:46:10.321Z,14.90
2023-03-10T23:48:38.278Z,13.10
2023-03-10T23:51:12.992Z,15.30
2023-03-10T23:53:43.863Z,14.30
2023-03-10T23:56:12.347Z,14.10
2023-03-10T23:58:41.021Z,16.00
